CFU9 weather

Olds (Hospital) Heliport
Olds, Alberta, Canada

Public forecast

Using degrees Celsius for public forecast. Weather courtesy of forecast.io.

METAR (pilot weather report)

Closest report is Red Deer Regional Airport, 24.3 nm (45.0 km) NNE. Retrieved 2019/09/23 18:00 UTC (51 minutes ago):

CYQF 231800Z VRB02KT 15SM FEW040 FEW100 BKN250 14/03 A2979 RMK CF1AC1CI6 CF TR SLP098 DENSITY ALT 3700FT

TAF (pilot weather forecast)

Closest forecast is Red Deer Regional Airport, 24.3 nm (45.0 km) NNE. Retrieved 2019/09/23 18:42 UTC (9 minutes ago):

TAF TAF CYQF 231738Z 2318/2406 22008KT P6SM FEW015 FEW250 BECMG 2318/2320 26010KT BKN180 FM232200 29010KT P6SM BKN070 BKN120 FM240300 29008KT P6SM FEW120 BECMG 2403/2405 VRB03KT RMK NXT FCST BY 240000Z